Time;durP1;ratioP1;P1;durP2;ratioP2;P2;SDS_P1;SDS_P2;PMS_P1;PMS_P2;Temp;Humidity;BMP_temperature;BMP_pressure;BME280_temperature;BME280_humidity;BME280_pressure;Samples;Min_cycle;Max_cycle;Signal;HPM_P1;HPM_P2
2024/01/18 00:01:35;;;;;;;;;21.60;21.60;;;;;7.91;64.38;97846.09;4988115;28;8870;-79
2024/01/18 00:04:06;;;;;;;;;24.40;21.60;;;;;7.96;64.41;97826.72;4988648;28;8854;-79
2024/01/18 00:06:35;;;;;;;;;22.40;21.40;;;;;8.03;63.63;97838.66;4988536;28;8924;-79
2024/01/18 00:09:04;;;;;;;;;20.00;19.80;;;;;8.02;63.82;97836.09;4988507;28;8877;-80
2024/01/18 00:11:33;;;;;;;;;20.00;19.40;;;;;8.07;63.57;97829.78;4990186;28;8878;-81
2024/01/18 00:14:02;;;;;;;;;17.00;17.00;;;;;8.17;63.27;97835.50;4991224;28;8866;-80
2024/01/18 00:16:33;;;;;;;;;17.20;16.20;;;;;8.21;63.41;97831.00;5007417;28;9000;-80
2024/01/18 00:19:01;;;;;;;;;20.40;20.40;;;;;8.22;62.91;97825.72;4993226;28;8854;-78
2024/01/18 00:21:31;;;;;;;;;21.20;19.20;;;;;8.31;63.11;97815.81;5008135;28;8850;-79
2024/01/18 00:24:01;;;;;;;;;21.20;18.00;;;;;8.41;62.75;97818.00;5054461;28;8893;-80
2024/01/18 00:26:30;;;;;;;;;20.60;18.80;;;;;8.47;62.46;97819.53;5033709;28;8871;-79
2024/01/18 00:29:00;;;;;;;;;20.60;17.80;;;;;8.59;62.02;97819.06;5032184;28;8874;-80
2024/01/18 00:31:29;;;;;;;;;15.40;11.20;;;;;8.54;62.35;97813.16;5030637;28;8863;-80
2024/01/18 00:33:58;;;;;;;;;18.00;16.60;;;;;8.57;62.09;97804.31;5029047;28;8852;-77
2024/01/18 00:36:28;;;;;;;;;20.60;18.60;;;;;8.59;62.10;97802.47;5045311;28;8867;-78
2024/01/18 00:38:59;;;;;;;;;20.00;20.00;;;;;8.71;61.52;97791.50;5045014;28;8848;-79
2024/01/18 00:41:32;;;;;;;;;21.60;21.60;;;;;8.69;61.39;97795.13;5034789;28;9602;-79
2024/01/18 00:44:01;;;;;;;;;19.80;18.80;;;;;8.74;61.76;97801.00;5000996;28;8874;-77
2024/01/18 00:46:30;;;;;;;;;17.20;16.00;;;;;8.84;61.11;97811.03;5032341;28;8964;-79
2024/01/18 00:48:59;;;;;;;;;17.60;16.00;;;;;8.94;60.96;97808.88;5030145;28;8846;-78
2024/01/18 00:51:28;;;;;;;;;17.20;17.20;;;;;9.12;60.05;97816.88;5047098;28;8851;-79
2024/01/18 00:53:58;;;;;;;;;17.60;17.60;;;;;9.11;60.44;97813.41;4997901;28;8845;-79
2024/01/18 00:56:27;;;;;;;;;16.60;16.60;;;;;9.11;60.04;97820.41;5047815;28;9135;-80
2024/01/18 00:58:56;;;;;;;;;13.20;13.20;;;;;9.32;59.83;97822.09;5032117;28;8830;-79
2024/01/18 01:01:25;;;;;;;;;21.20;15.20;;;;;9.52;58.97;97823.03;5049819;28;8848;-79
2024/01/18 01:03:54;;;;;;;;;13.20;12.80;;;;;9.54;58.82;97824.66;5049718;28;8855;-78
2024/01/18 01:06:23;;;;;;;;;12.40;12.20;;;;;9.80;58.10;97813.00;5032366;28;8867;-79
2024/01/18 01:08:52;;;;;;;;;11.80;10.60;;;;;9.76;58.03;97813.22;5033120;28;8884;-80
2024/01/18 01:11:22;;;;;;;;;17.60;13.60;;;;;9.79;57.83;97808.66;5054996;28;9041;-80
2024/01/18 01:13:51;;;;;;;;;15.40;13.40;;;;;9.94;57.42;97806.28;5041834;28;8856;-78
2024/01/18 01:16:20;;;;;;;;;15.00;14.00;;;;;10.16;56.76;97806.09;5016170;28;8864;-79
2024/01/18 01:18:50;;;;;;;;;5.60;5.60;;;;;10.30;56.42;97808.94;5033204;28;8864;-79
2024/01/18 01:21:18;;;;;;;;;10.40;9.40;;;;;10.37;55.97;97806.88;5033133;28;8859;-79
2024/01/18 01:23:51;;;;;;;;;12.80;12.20;;;;;10.48;55.67;97801.97;5049585;28;9667;-82
2024/01/18 01:26:20;;;;;;;;;11.60;11.00;;;;;10.49;55.58;97794.94;5041678;28;8936;-80
2024/01/18 01:28:50;;;;;;;;;7.20;7.20;;;;;10.53;55.49;97794.69;5027417;28;8963;-78
2024/01/18 01:31:19;;;;;;;;;11.40;9.80;;;;;10.69;55.17;97796.56;5027708;28;8867;-78
2024/01/18 01:33:49;;;;;;;;;9.80;9.60;;;;;10.73;55.03;97790.25;4990222;28;8871;-78
2024/01/18 01:36:18;;;;;;;;;10.20;9.00;;;;;10.79;54.49;97796.06;5006293;28;8859;-79
2024/01/18 01:38:47;;;;;;;;;11.20;9.20;;;;;10.73;54.59;97787.63;4993422;28;8972;-78
2024/01/18 01:41:16;;;;;;;;;6.00;5.60;;;;;10.84;54.47;97795.84;5024402;28;8915;-80
2024/01/18 01:43:59;;;;;;;;;5.00;5.00;;;;;11.07;53.62;97778.91;5025862;28;8951;-78
2024/01/18 01:46:28;;;;;;;;;8.80;8.80;;;;;11.06;53.78;97771.94;4993466;28;8858;-78
2024/01/18 01:49:01;;;;;;;;;9.00;9.00;;;;;11.18;53.37;97763.41;5026288;28;9677;-77
2024/01/18 01:51:35;;;;;;;;;7.80;7.20;;;;;11.12;53.34;97766.38;5009548;28;9019;-78
2024/01/18 01:54:06;;;;;;;;;11.20;8.20;;;;;11.23;53.27;97751.81;5025686;28;8834;-80
2024/01/18 01:56:38;;;;;;;;;4.60;4.60;;;;;11.25;52.86;97753.41;5008248;28;8862;-79
2024/01/18 01:59:12;;;;;;;;;5.00;4.80;;;;;11.38;52.45;97741.31;5027978;28;9604;-79
2024/01/18 02:01:42;;;;;;;;;6.00;5.00;;;;;11.45;52.67;97751.53;5018130;28;8985;-79
2024/01/18 02:04:11;;;;;;;;;6.00;6.00;;;;;11.47;52.48;97749.66;5011552;28;8983;-79
2024/01/18 02:06:42;;;;;;;;;7.20;6.80;;;;;11.52;52.03;97753.75;4995320;28;8856;-80
2024/01/18 02:09:12;;;;;;;;;7.00;6.80;;;;;11.60;51.96;97753.34;5027212;28;8844;-79
2024/01/18 02:11:41;;;;;;;;;6.00;6.00;;;;;11.70;51.20;97757.16;5043767;28;8873;-79
2024/01/18 02:14:12;;;;;;;;;7.00;7.00;;;;;11.81;51.29;97748.69;5025405;28;8832;-79
2024/01/18 02:16:41;;;;;;;;;6.80;6.00;;;;;11.81;51.06;97747.84;5009617;28;8848;-78
2024/01/18 02:19:10;;;;;;;;;7.20;7.20;;;;;11.71;51.45;97742.22;4997126;28;8837;-78
2024/01/18 02:21:40;;;;;;;;;10.60;6.80;;;;;11.70;51.02;97741.38;5029639;28;8994;-78
2024/01/18 02:24:15;;;;;;;;;8.00;6.60;;;;;11.80;51.04;97731.19;5029139;28;8872;-80
2024/01/18 02:26:45;;;;;;;;;6.00;6.00;;;;;11.75;51.30;97741.13;4980187;28;8880;-80
2024/01/18 02:29:14;;;;;;;;;6.00;6.00;;;;;11.87;50.77;97734.38;5030496;28;8836;-78
2024/01/18 02:31:43;;;;;;;;;7.80;7.80;;;;;11.91;50.55;97736.72;5029379;28;10062;-79
2024/01/18 02:34:16;;;;;;;;;8.00;7.20;;;;;11.94;50.86;97749.75;5029503;28;8860;-79
2024/01/18 02:36:45;;;;;;;;;6.40;6.40;;;;;11.97;50.60;97737.34;5019471;28;8863;-79
2024/01/18 02:39:14;;;;;;;;;7.80;7.80;;;;;12.02;50.35;97741.41;5032002;28;8873;-81
2024/01/18 02:41:45;;;;;;;;;10.60;8.40;;;;;12.09;50.19;97732.25;5031736;28;10030;-80
2024/01/18 02:44:15;;;;;;;;;9.00;5.80;;;;;12.18;50.06;97730.00;5026293;28;8891;-79
2024/01/18 02:46:44;;;;;;;;;8.00;6.60;;;;;12.09;50.05;97742.78;5051147;28;8860;-78
2024/01/18 02:49:13;;;;;;;;;5.00;5.00;;;;;12.02;49.93;97730.88;5049962;28;8873;-77
2024/01/18 02:51:41;;;;;;;;;8.20;8.20;;;;;12.00;50.55;97722.22;5032252;28;8836;-79
2024/01/18 02:54:10;;;;;;;;;9.00;9.00;;;;;12.07;50.36;97723.56;5031451;28;8920;-78
2024/01/18 02:56:39;;;;;;;;;8.00;8.00;;;;;11.90;50.81;97702.59;4996439;28;8851;-78
2024/01/18 02:59:11;;;;;;;;;8.00;7.00;;;;;11.98;50.58;97713.56;5032489;28;8873;-77
2024/01/18 03:01:40;;;;;;;;;7.20;7.20;;;;;12.00;50.59;97711.69;5031782;28;8835;-78
2024/01/18 03:04:09;;;;;;;;;7.80;7.80;;;;;12.17;50.34;97702.81;5030701;28;8936;-77
2024/01/18 03:06:38;;;;;;;;;6.80;6.20;;;;;12.02;50.84;97698.44;5030767;28;8882;-80
2024/01/18 03:09:07;;;;;;;;;8.20;8.00;;;;;11.95;50.96;97701.41;5030910;28;8867;-78
2024/01/18 03:11:36;;;;;;;;;12.60;11.60;;;;;11.88;51.45;97692.16;5030738;28;8862;-78
2024/01/18 03:14:05;;;;;;;;;9.80;5.80;;;;;11.81;51.54;97689.94;5029984;28;8835;-77
2024/01/18 03:16:36;;;;;;;;;9.40;9.20;;;;;11.51;52.59;97685.41;5030071;28;8901;-78
2024/01/18 03:19:05;;;;;;;;;12.80;10.40;;;;;11.34;52.76;97694.22;5016295;28;9018;-78
2024/01/18 03:21:34;;;;;;;;;10.20;9.80;;;;;11.40;52.30;97696.50;5050396;28;8873;-78
2024/01/18 03:24:03;;;;;;;;;8.20;8.20;;;;;11.40;53.03;97682.53;5061873;28;8949;-77
2024/01/18 03:26:33;;;;;;;;;7.00;7.00;;;;;11.42;52.22;97685.91;5070750;28;8843;-78
2024/01/18 03:29:02;;;;;;;;;7.40;7.40;;;;;11.49;51.90;97688.13;5050990;28;8890;-78
2024/01/18 03:31:30;;;;;;;;;9.00;6.20;;;;;11.62;51.76;97690.09;5033802;28;8868;-80
2024/01/18 03:34:01;;;;;;;;;6.60;6.60;;;;;11.66;51.96;97691.63;5050449;28;8927;-80
2024/01/18 03:36:30;;;;;;;;;4.40;3.80;;;;;11.74;50.87;97694.66;5050303;28;9766;-79
2024/01/18 03:38:59;;;;;;;;;9.40;7.20;;;;;11.81;50.81;97700.47;5050510;28;8850;-80
2024/01/18 03:41:28;;;;;;;;;6.20;5.00;;;;;11.94;50.81;97698.88;5032816;28;8850;-79
2024/01/18 03:43:57;;;;;;;;;5.80;5.80;;;;;12.05;50.35;97695.59;4982991;28;8993;-80
2024/01/18 03:46:26;;;;;;;;;8.20;7.00;;;;;11.97;50.19;97695.19;5033049;28;9619;-81
2024/01/18 03:48:55;;;;;;;;;6.00;4.00;;;;;12.05;49.62;97700.88;5065312;28;8893;-79
2024/01/18 03:51:25;;;;;;;;;5.00;5.00;;;;;12.05;49.79;97685.94;5015848;28;8858;-78
2024/01/18 03:53:54;;;;;;;;;4.60;4.60;;;;;12.05;50.02;97680.69;5048938;28;8869;-79
2024/01/18 03:56:23;;;;;;;;;7.20;4.40;;;;;12.09;49.70;97681.34;5054642;28;8850;-80
2024/01/18 03:58:52;;;;;;;;;6.20;5.00;;;;;12.20;49.39;97691.25;5069503;28;9014;-79
2024/01/18 04:01:21;;;;;;;;;5.00;5.00;;;;;12.30;48.94;97689.81;5033393;28;8850;-79
2024/01/18 04:03:49;;;;;;;;;2.00;2.00;;;;;12.41;49.13;97702.34;5050103;28;8870;-78
2024/01/18 04:06:19;;;;;;;;;9.00;8.00;;;;;12.43;49.35;97693.44;5048619;28;9654;-79
2024/01/18 04:08:49;;;;;;;;;3.40;2.80;;;;;12.48;49.12;97682.59;5032462;28;8888;-78
2024/01/18 04:11:18;;;;;;;;;7.40;6.40;;;;;12.48;49.53;97686.09;5007463;28;8961;-79
2024/01/18 04:13:47;;;;;;;;;6.00;6.00;;;;;12.43;49.50;97684.66;5007581;28;9667;-77
2024/01/18 04:16:16;;;;;;;;;8.80;7.40;;;;;12.39;49.71;97685.78;4986525;28;8858;-78
2024/01/18 04:18:47;;;;;;;;;6.40;6.40;;;;;12.35;50.45;97685.09;5046937;28;8976;-77
2024/01/18 04:21:17;;;;;;;;;6.40;6.40;;;;;12.32;50.41;97682.66;5043988;28;8850;-78
2024/01/18 04:23:45;;;;;;;;;6.00;6.00;;;;;12.40;50.50;97676.94;5039539;28;8850;-78
2024/01/18 04:26:16;;;;;;;;;5.20;5.20;;;;;12.41;51.00;97674.22;5029821;28;8866;-77
2024/01/18 04:28:45;;;;;;;;;9.60;9.20;;;;;12.49;50.55;97674.63;5016933;28;8842;-78
2024/01/18 04:31:14;;;;;;;;;19.40;19.40;;;;;12.46;50.86;97668.66;4999652;28;9615;-79
2024/01/18 04:33:43;;;;;;;;;20.00;17.80;;;;;12.48;50.64;97659.72;5027536;28;8857;-80
2024/01/18 04:36:12;;;;;;;;;14.00;11.40;;;;;12.60;51.08;97647.63;5039290;28;8896;-76
2024/01/18 04:38:41;;;;;;;;;9.80;9.20;;;;;12.51;50.73;97643.75;5028388;28;8904;-78
2024/01/18 04:41:11;;;;;;;;;13.00;11.40;;;;;12.51;50.96;97632.38;5026408;28;9008;-79
2024/01/18 04:43:41;;;;;;;;;8.20;8.00;;;;;12.48;50.60;97640.44;5068560;28;8862;-79
2024/01/18 04:46:11;;;;;;;;;7.80;6.80;;;;;12.40;50.64;97629.50;5070142;28;8941;-79
2024/01/18 04:48:40;;;;;;;;;7.60;7.60;;;;;12.42;50.63;97628.47;5068138;28;8844;-78
2024/01/18 04:51:09;;;;;;;;;6.20;6.20;;;;;12.39;50.86;97622.53;5057056;28;8830;-79
2024/01/18 04:53:38;;;;;;;;;6.60;6.40;;;;;12.29;50.58;97627.50;5013530;28;8838;-77
2024/01/18 04:56:07;;;;;;;;;5.80;5.80;;;;;12.18;51.17;97611.47;5047628;28;8846;-79
2024/01/18 04:58:37;;;;;;;;;6.00;5.20;;;;;12.04;51.60;97620.19;5048778;28;8952;-78
2024/01/18 05:01:10;;;;;;;;;7.00;6.00;;;;;11.99;52.11;97614.34;5031545;28;8870;-79
2024/01/18 05:03:39;;;;;;;;;7.60;6.60;;;;;11.95;52.04;97600.50;5049307;28;8858;-78
2024/01/18 05:06:09;;;;;;;;;6.80;6.80;;;;;11.83;51.83;97603.84;5050231;28;8957;-79
2024/01/18 05:08:38;;;;;;;;;6.20;6.20;;;;;11.75;52.33;97596.34;5049086;28;8862;-78
2024/01/18 05:11:07;;;;;;;;;8.60;6.60;;;;;11.72;52.36;97602.63;5048700;28;8958;-78
2024/01/18 05:13:36;;;;;;;;;7.60;7.00;;;;;11.82;52.22;97604.75;5014719;28;8862;-79
2024/01/18 05:16:06;;;;;;;;;5.80;5.80;;;;;11.83;52.14;97596.78;5049510;28;9011;-77
2024/01/18 05:18:36;;;;;;;;;7.40;7.20;;;;;11.67;52.88;97582.78;5013673;28;8846;-80
2024/01/18 05:21:05;;;;;;;;;22.40;20.80;;;;;11.53;53.36;97584.41;5032686;28;8952;-78
2024/01/18 05:23:34;;;;;;;;;13.20;13.20;;;;;11.44;54.24;97584.06;4989791;28;8908;-79
2024/01/18 05:26:04;;;;;;;;;8.20;7.60;;;;;11.39;54.09;97576.44;5016829;28;8855;-77
2024/01/18 05:28:33;;;;;;;;;11.00;8.60;;;;;11.34;53.92;97575.84;5025192;28;8868;-76
2024/01/18 05:31:02;;;;;;;;;8.40;7.00;;;;;11.27;54.34;97574.50;5025403;28;8890;-78
2024/01/18 05:33:31;;;;;;;;;10.80;9.00;;;;;11.29;54.13;97573.47;5026058;28;9043;-80
2024/01/18 05:36:02;;;;;;;;;7.60;7.00;;;;;11.23;54.60;97586.13;5024527;28;9805;-79
2024/01/18 05:38:33;;;;;;;;;9.00;7.60;;;;;11.17;54.81;97597.81;5008463;28;8869;-80
2024/01/18 05:41:09;;;;;;;;;7.60;7.00;;;;;11.24;54.40;97596.56;4997685;28;8872;-79
2024/01/18 05:43:38;;;;;;;;;10.80;10.80;;;;;11.25;54.26;97598.25;5028770;28;8969;-81
2024/01/18 05:46:08;;;;;;;;;16.00;15.00;;;;;11.26;54.16;97597.31;5025962;28;8930;-79
2024/01/18 05:48:36;;;;;;;;;7.80;7.80;;;;;11.16;54.70;97588.22;5026208;28;8885;-80
2024/01/18 05:51:07;;;;;;;;;12.00;11.00;;;;;11.17;54.48;97596.03;5026380;28;8885;-78
2024/01/18 05:53:38;;;;;;;;;4.80;4.80;;;;;11.26;54.07;97589.44;5028377;28;8852;-81
2024/01/18 05:56:08;;;;;;;;;13.20;13.20;;;;;11.37;53.24;97597.56;5046276;28;8873;-78
2024/01/18 05:58:37;;;;;;;;;12.00;12.00;;;;;11.41;52.83;97602.66;5013398;28;9007;-79
2024/01/18 06:01:09;;;;;;;;;13.00;10.60;;;;;11.55;52.67;97593.06;5031807;28;8856;-78
2024/01/18 06:03:37;;;;;;;;;14.00;14.00;;;;;11.62;52.06;97592.72;5030705;28;8949;-78
2024/01/18 06:06:08;;;;;;;;;12.20;9.80;;;;;11.47;51.80;97595.28;5032106;28;8836;-78
2024/01/18 06:08:37;;;;;;;;;25.00;21.60;;;;;11.44;51.70;97591.97;5027337;28;8855;-80
2024/01/18 06:11:06;;;;;;;;;7.20;7.20;;;;;11.40;50.36;97587.81;5031560;28;8862;-78
2024/01/18 06:13:39;;;;;;;;;10.40;9.40;;;;;11.65;49.72;97596.00;5013407;28;9577;-78
2024/01/18 06:16:10;;;;;;;;;7.00;6.40;;;;;11.77;49.19;97589.22;5024064;28;8986;-80
2024/01/18 06:18:42;;;;;;;;;6.80;4.80;;;;;11.57;49.52;97588.56;5031604;28;8864;-78
2024/01/18 06:21:13;;;;;;;;;5.20;5.20;;;;;11.80;48.66;97581.13;5030325;28;9581;-78
2024/01/18 06:23:42;;;;;;;;;6.40;5.80;;;;;11.71;49.05;97589.56;5039030;28;8907;-79
2024/01/18 06:26:12;;;;;;;;;6.60;6.20;;;;;11.94;47.76;97583.84;5009794;28;8955;-79
2024/01/18 06:28:41;;;;;;;;;4.80;2.40;;;;;12.07;48.07;97576.09;5032655;28;8863;-79
2024/01/18 06:31:11;;;;;;;;;9.40;7.80;;;;;12.07;47.93;97591.91;5030637;28;8852;-79
2024/01/18 06:33:39;;;;;;;;;8.60;8.20;;;;;12.20;47.28;97585.91;5013163;28;8871;-78
2024/01/18 06:36:09;;;;;;;;;5.00;5.00;;;;;12.02;47.81;97585.22;5044390;28;9657;-80
2024/01/18 06:38:39;;;;;;;;;9.40;8.40;;;;;12.20;47.19;97596.44;5016828;28;9789;-79
2024/01/18 06:41:11;;;;;;;;;8.40;8.00;;;;;12.25;47.09;97586.47;5036900;28;9439;-79
2024/01/18 06:43:40;;;;;;;;;7.40;5.60;;;;;12.09;47.08;97576.84;5034394;28;9050;-79
2024/01/18 06:46:15;;;;;;;;;7.00;7.00;;;;;12.36;46.56;97580.59;5029177;28;8944;-78
2024/01/18 06:48:52;;;;;;;;;10.40;8.60;;;;;12.33;46.94;97582.47;5031121;28;8863;-79
2024/01/18 06:51:23;;;;;;;;;8.00;8.00;;;;;12.53;46.23;97577.78;5032267;28;8911;-81
2024/01/18 06:53:53;;;;;;;;;7.60;7.60;;;;;12.41;45.98;97579.38;5032087;28;8843;-79
2024/01/18 06:56:23;;;;;;;;;6.00;6.00;;;;;12.63;46.18;97580.69;4996236;28;8980;-80
2024/01/18 06:58:52;;;;;;;;;2.00;2.00;;;;;12.56;45.93;97580.22;5030265;28;8850;-77
2024/01/18 07:01:22;;;;;;;;;9.40;6.00;;;;;12.57;45.67;97578.44;5063777;28;9657;-71
2024/01/18 07:03:51;;;;;;;;;6.80;6.00;;;;;12.69;45.70;97575.03;5028988;28;8853;-71
2024/01/18 07:06:20;;;;;;;;;7.00;6.20;;;;;12.61;45.48;97572.88;5030586;28;8857;-72
2024/01/18 07:08:50;;;;;;;;;8.00;7.20;;;;;12.83;45.63;97574.22;5011782;28;8849;-73
2024/01/18 07:11:20;;;;;;;;;4.80;4.00;;;;;12.56;45.42;97585.50;5011778;28;8857;-71
2024/01/18 07:13:49;;;;;;;;;6.60;6.60;;;;;12.73;45.67;97576.53;5030618;28;8983;-72
2024/01/18 07:16:18;;;;;;;;;8.00;8.00;;;;;12.81;45.49;97576.94;5031245;28;9429;-79
2024/01/18 07:18:48;;;;;;;;;9.40;8.40;;;;;13.00;44.84;97573.19;5063004;28;8849;-79
2024/01/18 07:21:17;;;;;;;;;6.60;6.60;;;;;13.10;44.36;97572.50;5028153;28;8850;-78
2024/01/18 07:23:46;;;;;;;;;8.40;8.40;;;;;13.06;44.45;97571.00;5032849;28;8852;-78
2024/01/18 07:26:15;;;;;;;;;7.60;7.60;;;;;12.95;44.85;97577.91;5016863;28;8965;-78
2024/01/18 07:28:46;;;;;;;;;7.80;7.80;;;;;13.19;44.24;97594.81;5053567;28;8968;-77
2024/01/18 07:31:15;;;;;;;;;6.20;6.20;;;;;13.06;44.48;97583.34;5049524;28;8955;-78
2024/01/18 07:33:44;;;;;;;;;9.60;9.00;;;;;13.12;43.96;97580.31;5066844;28;8998;-81
2024/01/18 07:36:13;;;;;;;;;10.00;8.80;;;;;13.38;43.79;97585.75;5032581;28;8880;-79
2024/01/18 07:38:43;;;;;;;;;5.00;5.00;;;;;13.55;42.96;97577.59;5022340;28;9593;-78
2024/01/18 07:41:12;;;;;;;;;4.40;4.40;;;;;13.59;42.52;97573.81;5009234;28;8922;-79
2024/01/18 07:43:41;;;;;;;;;10.60;9.80;;;;;13.35;43.20;97575.38;5018382;28;8884;-77
2024/01/18 07:46:11;;;;;;;;;11.00;9.40;;;;;13.51;43.19;97576.94;5012024;28;9603;-80
2024/01/18 07:48:40;;;;;;;;;11.60;7.40;;;;;13.24;43.11;97579.56;4995055;28;9688;-79
2024/01/18 07:51:10;;;;;;;;;8.60;8.60;;;;;13.27;43.04;97571.44;5012812;28;9730;-80
2024/01/18 07:53:38;;;;;;;;;11.40;9.60;;;;;13.36;43.43;97571.81;5027290;28;8861;-80
2024/01/18 07:56:07;;;;;;;;;11.00;10.00;;;;;13.41;42.96;97564.44;5011083;28;8884;-78
2024/01/18 07:58:37;;;;;;;;;12.00;8.00;;;;;13.43;42.82;97560.75;5007783;28;8856;-79
2024/01/18 08:01:06;;;;;;;;;9.40;9.20;;;;;13.41;42.83;97557.38;4991297;28;8848;-78
2024/01/18 08:03:36;;;;;;;;;11.40;10.60;;;;;13.44;42.61;97562.44;4991665;28;8863;-79
2024/01/18 08:06:07;;;;;;;;;12.00;11.00;;;;;13.73;42.02;97569.41;4991383;28;8844;-79
2024/01/18 08:08:36;;;;;;;;;8.00;8.00;;;;;13.67;42.04;97563.56;5007776;28;8852;-78
2024/01/18 08:11:05;;;;;;;;;11.60;11.60;;;;;13.95;41.71;97568.88;4991808;28;8918;-78
2024/01/18 08:13:34;;;;;;;;;13.00;12.60;;;;;13.81;42.03;97581.22;4994311;28;8970;-77
2024/01/18 08:16:04;;;;;;;;;15.20;13.60;;;;;13.83;41.92;97578.47;5026466;28;9598;-77
2024/01/18 08:18:32;;;;;;;;;13.60;10.40;;;;;14.01;41.73;97579.88;4980989;28;8845;-79
2024/01/18 08:21:03;;;;;;;;;11.80;11.80;;;;;14.01;41.88;97579.88;5001280;28;8933;-76
2024/01/18 08:23:37;;;;;;;;;7.20;6.20;;;;;13.76;41.83;97585.06;5021526;28;8868;-79
2024/01/18 08:26:07;;;;;;;;;6.60;6.60;;;;;14.04;41.62;97590.25;5029154;28;8927;-78
2024/01/18 08:28:36;;;;;;;;;5.80;5.80;;;;;14.18;41.54;97577.91;5010991;28;8852;-78
2024/01/18 08:31:06;;;;;;;;;9.40;9.40;;;;;14.03;41.61;97579.78;5013497;28;8890;-77
2024/01/18 08:33:34;;;;;;;;;11.40;10.40;;;;;14.25;41.25;97577.38;5028435;28;8914;-78
2024/01/18 08:36:05;;;;;;;;;8.80;8.80;;;;;14.36;41.05;97589.88;5010972;28;8860;-78
2024/01/18 08:38:34;;;;;;;;;13.20;11.00;;;;;14.44;40.67;97587.56;4962490;28;9602;-79
2024/01/18 08:41:04;;;;;;;;;7.80;7.80;;;;;14.61;40.40;97582.91;5029902;28;8859;-78
2024/01/18 08:43:32;;;;;;;;;7.00;7.00;;;;;14.67;39.62;97585.97;5029698;28;9415;-78
2024/01/18 08:46:06;;;;;;;;;7.00;6.80;;;;;14.70;39.73;97578.78;5027989;28;8847;-78
2024/01/18 08:48:35;;;;;;;;;9.20;9.20;;;;;14.83;39.55;97561.16;5028081;28;8855;-80
2024/01/18 08:51:12;;;;;;;;;8.00;8.00;;;;;14.98;39.44;97570.66;5028044;28;8882;-78
2024/01/18 08:53:42;;;;;;;;;8.20;7.00;;;;;14.94;39.55;97579.72;5029958;28;9120;-77
2024/01/18 08:56:12;;;;;;;;;7.60;6.40;;;;;14.67;40.03;97588.63;5028853;28;8855;-78
2024/01/18 08:58:41;;;;;;;;;6.80;6.80;;;;;14.63;39.79;97583.66;5028242;28;8848;-78
2024/01/18 09:01:10;;;;;;;;;10.00;9.00;;;;;14.65;39.77;97573.81;5036051;28;8856;-79
2024/01/18 09:03:39;;;;;;;;;8.20;8.20;;;;;14.83;39.14;97567.28;5050658;28;8853;-78
2024/01/18 09:06:10;;;;;;;;;7.00;7.00;;;;;14.80;39.48;97570.13;5015394;28;8973;-79
2024/01/18 09:08:41;;;;;;;;;9.40;9.40;;;;;14.96;39.19;97574.34;5049633;28;8857;-81
2024/01/18 09:11:10;;;;;;;;;8.40;7.60;;;;;15.21;38.91;97576.94;5049530;28;8855;-77
2024/01/18 09:13:40;;;;;;;;;6.20;6.20;;;;;15.18;38.54;97568.38;5044277;28;8998;-78
2024/01/18 09:16:09;;;;;;;;;6.20;6.20;;;;;14.99;38.65;97553.81;5030783;28;8855;-79
2024/01/18 09:18:39;;;;;;;;;11.20;9.80;;;;;15.20;38.58;97548.78;5029262;28;8989;-79
2024/01/18 09:21:25;;;;;;;;;9.40;9.00;;;;;15.09;38.11;97551.34;5029014;28;8874;-77
2024/01/18 09:23:54;;;;;;;;;9.00;9.00;;;;;15.10;37.95;97554.84;5017543;28;8874;-78
2024/01/18 09:26:23;;;;;;;;;7.80;7.20;;;;;15.24;37.64;97552.06;4991740;28;9391;-79
2024/01/18 09:28:52;;;;;;;;;3.00;3.00;;;;;15.12;37.35;97551.13;5007430;28;8866;-79
2024/01/18 09:31:22;;;;;;;;;10.00;10.00;;;;;14.93;38.29;97543.66;5024605;28;8839;-78
2024/01/18 09:34:06;;;;;;;;;8.00;8.00;;;;;15.28;37.91;97542.09;5061236;28;8851;-78
2024/01/18 09:36:37;;;;;;;;;8.80;6.80;;;;;15.38;37.46;97545.78;5028344;28;8859;-79
2024/01/18 09:39:08;;;;;;;;;9.00;8.20;;;;;15.28;37.88;97536.78;5027276;28;8893;-79
2024/01/18 09:41:37;;;;;;;;;9.40;8.40;;;;;15.32;37.91;97530.31;5028546;28;8844;-77
2024/01/18 09:44:07;;;;;;;;;9.40;8.20;;;;;15.64;37.36;97525.34;5028933;28;8859;-78
2024/01/18 09:46:36;;;;;;;;;9.00;7.80;;;;;15.75;36.89;97519.25;5043922;28;8847;-79
2024/01/18 09:49:07;;;;;;;;;8.80;8.00;;;;;15.92;37.21;97515.31;5010982;28;8851;-77
2024/01/18 09:51:38;;;;;;;;;13.00;10.60;;;;;15.97;39.30;97513.19;5006314;28;8847;-80
2024/01/18 09:54:07;;;;;;;;;10.20;10.20;;;;;15.87;39.78;97515.69;4990455;28;8940;-77
2024/01/18 09:56:41;;;;;;;;;10.40;10.40;;;;;15.92;40.12;97523.28;5006644;28;8882;-79
2024/01/18 09:59:12;;;;;;;;;10.20;9.60;;;;;15.96;39.99;97520.31;5023276;28;8861;-79
2024/01/18 10:01:41;;;;;;;;;16.00;13.40;;;;;16.02;39.94;97514.53;4970972;28;9001;-79
2024/01/18 10:04:13;;;;;;;;;14.00;11.60;;;;;16.16;40.01;97500.22;4986724;28;8894;-79
2024/01/18 10:06:44;;;;;;;;;12.20;11.40;;;;;16.30;39.78;97504.44;4986887;28;8846;-80
2024/01/18 10:09:14;;;;;;;;;10.60;9.00;;;;;16.42;39.30;97498.19;4970752;28;8861;-78
2024/01/18 10:11:46;;;;;;;;;6.60;6.60;;;;;16.55;38.75;97491.94;4986982;28;9004;-79
2024/01/18 10:14:15;;;;;;;;;10.80;10.80;;;;;16.73;38.83;97487.84;5003163;28;8902;-79
2024/01/18 10:16:45;;;;;;;;;6.40;6.40;;;;;16.91;38.74;97485.56;4986649;28;8853;-77
2024/01/18 10:19:14;;;;;;;;;10.40;10.40;;;;;16.75;39.30;97479.78;4970415;28;9103;-78
2024/01/18 10:21:48;;;;;;;;;11.20;9.80;;;;;16.90;39.39;97480.38;4987325;28;8963;-81
2024/01/18 10:24:17;;;;;;;;;13.20;12.40;;;;;16.97;39.29;97479.75;5018818;28;9004;-79
2024/01/18 10:26:47;;;;;;;;;15.00;14.00;;;;;16.90;39.56;97478.56;5025677;28;8922;-78
2024/01/18 10:29:15;;;;;;;;;15.40;12.60;;;;;17.02;39.65;97482.03;5010380;28;8861;-78
2024/01/18 10:31:44;;;;;;;;;13.20;13.20;;;;;17.01;39.48;97477.69;5029116;28;8853;-81
2024/01/18 10:34:16;;;;;;;;;11.20;10.80;;;;;17.14;39.57;97486.34;5031426;28;8871;-80
2024/01/18 10:36:46;;;;;;;;;11.00;10.20;;;;;17.23;38.94;97479.47;5029887;28;8894;-78
2024/01/18 10:39:16;;;;;;;;;12.60;10.40;;;;;17.26;37.70;97476.56;5031286;28;9072;-80
2024/01/18 10:41:46;;;;;;;;;9.00;9.00;;;;;17.25;36.04;97472.25;5014613;28;8966;-81
2024/01/18 10:44:16;;;;;;;;;10.40;9.80;;;;;16.98;36.57;97468.19;5047824;28;8852;-81
2024/01/18 10:46:47;;;;;;;;;10.40;8.00;;;;;16.83;36.44;97471.22;5030903;28;9651;-79
2024/01/18 10:49:16;;;;;;;;;16.60;16.60;;;;;17.11;36.54;97469.84;5032150;28;8869;-78
2024/01/18 10:51:48;;;;;;;;;4.00;3.00;;;;;16.86;36.05;97463.00;5030503;28;8868;-79
2024/01/18 10:54:18;;;;;;;;;10.80;9.60;;;;;16.90;36.21;97461.78;5030742;28;8859;-78
2024/01/18 10:57:00;;;;;;;;;13.20;12.40;;;;;16.87;36.31;97460.25;5037208;28;8853;-78
2024/01/18 10:59:30;;;;;;;;;14.60;12.60;;;;;16.81;36.48;97463.38;5051913;28;8876;-80
2024/01/18 11:02:00;;;;;;;;;14.40;12.40;;;;;17.18;36.17;97463.06;5052000;28;8879;-78
2024/01/18 11:04:31;;;;;;;;;15.60;14.20;;;;;16.95;36.00;97454.31;5052030;28;8868;-78
2024/01/18 11:07:03;;;;;;;;;9.40;9.00;;;;;16.99;35.74;97455.75;5049451;28;9792;-78
2024/01/18 11:09:36;;;;;;;;;14.00;12.60;;;;;17.19;35.71;97454.13;5033656;28;8959;-78
2024/01/18 11:12:07;;;;;;;;;15.20;12.40;;;;;17.00;35.69;97442.34;5052442;28;8865;-79
2024/01/18 11:14:37;;;;;;;;;17.20;15.40;;;;;17.03;36.13;97446.56;5047205;28;8868;-79
2024/01/18 11:17:12;;;;;;;;;12.40;12.40;;;;;17.10;36.04;97445.09;5029695;28;8836;-80
2024/01/18 11:19:42;;;;;;;;;12.20;11.40;;;;;17.17;35.93;97438.34;5031612;28;8854;-79
2024/01/18 11:22:23;;;;;;;;;15.40;13.20;;;;;17.38;35.48;97427.78;5031668;28;8874;-78
2024/01/18 11:24:52;;;;;;;;;13.40;11.60;;;;;17.36;35.63;97428.84;5029967;28;8856;-79
2024/01/18 11:27:23;;;;;;;;;10.20;9.00;;;;;17.51;35.05;97421.44;5062840;28;8901;-79
2024/01/18 11:29:52;;;;;;;;;10.20;9.80;;;;;17.67;34.79;97426.31;5031346;28;8968;-77
2024/01/18 11:32:22;;;;;;;;;11.60;10.80;;;;;17.76;35.12;97426.38;5030850;28;8844;-80
2024/01/18 11:35:07;;;;;;;;;6.60;6.20;;;;;17.90;36.26;97419.88;5030545;28;8917;-80
2024/01/18 11:37:38;;;;;;;;;12.40;12.40;;;;;17.88;36.88;97415.69;4979700;28;8847;-77
2024/01/18 11:40:09;;;;;;;;;12.40;11.60;;;;;17.67;37.56;97408.56;5030597;28;8953;-79
2024/01/18 11:42:42;;;;;;;;;10.00;9.00;;;;;17.76;37.70;97405.13;5037537;28;8845;-78
2024/01/18 11:45:16;;;;;;;;;12.20;11.40;;;;;17.74;37.89;97399.09;5049104;28;8929;-79
2024/01/18 11:47:46;;;;;;;;;12.40;10.00;;;;;17.68;37.98;97393.44;5032526;28;8871;-79
2024/01/18 11:50:17;;;;;;;;;10.00;10.00;;;;;17.75;37.88;97381.34;5048683;28;8852;-80